Time;durP1;ratioP1;P1;durP2;ratioP2;P2;SDS_P1;SDS_P2;PMS_P1;PMS_P2;Temp;Humidity;BMP_temperature;BMP_pressure;BME280_temperature;BME280_humidity;BME280_pressure;Samples;Min_cycle;Max_cycle;Signal;HPM_P1;HPM_P2
2023/05/05 00:01:07;;;;;;;8.73;5.05;;;;;;;12.57;88.45;97273.34;5053466;28;20086;-60
2023/05/05 00:03:34;;;;;;;9.52;5.15;;;;;;;12.54;88.83;97273.88;5050593;28;20055;-60
2023/05/05 00:06:01;;;;;;;7.97;5.20;;;;;;;12.44;89.58;97277.38;5051605;28;20649;-60
2023/05/05 00:08:28;;;;;;;7.72;4.75;;;;;;;12.41;90.01;97270.56;5052224;28;20090;-59
2023/05/05 00:10:55;;;;;;;7.28;5.20;;;;;;;12.42;90.07;97272.19;5039881;28;20041;-60
2023/05/05 00:13:22;;;;;;;9.10;5.38;;;;;;;12.51;89.35;97277.13;5051304;28;20040;-60
2023/05/05 00:15:51;;;;;;;7.25;5.38;;;;;;;12.49;89.86;97274.66;5053426;28;20044;-60
2023/05/05 00:18:18;;;;;;;7.85;5.38;;;;;;;12.47;89.73;97268.69;5048892;28;20106;-60
2023/05/05 00:20:46;;;;;;;10.95;5.47;;;;;;;12.32;90.51;97264.81;5051126;28;20040;-60
2023/05/05 00:23:13;;;;;;;11.43;5.75;;;;;;;12.30;90.45;97267.00;5050736;28;20510;-60
2023/05/05 00:25:40;;;;;;;8.43;5.15;;;;;;;12.18;91.56;97274.56;5052550;28;20068;-60
2023/05/05 00:28:07;;;;;;;9.43;5.53;;;;;;;12.22;91.00;97278.38;5047523;28;20037;-60
2023/05/05 00:30:36;;;;;;;10.20;5.25;;;;;;;12.17;91.15;97278.34;5044917;28;20053;-60
2023/05/05 00:33:02;;;;;;;9.90;5.43;;;;;;;12.05;91.64;97275.84;5050538;28;20069;-60
2023/05/05 00:35:29;;;;;;;7.80;5.93;;;;;;;11.90;92.32;97269.22;5051135;28;20045;-60
2023/05/05 00:37:55;;;;;;;8.43;5.70;;;;;;;11.84;92.78;97278.44;5047721;28;20037;-61
2023/05/05 00:40:22;;;;;;;10.23;6.18;;;;;;;11.79;93.12;97272.97;5051864;28;20134;-59
2023/05/05 00:42:51;;;;;;;8.63;5.95;;;;;;;11.77;93.71;97278.66;5047095;28;21614;-60
2023/05/05 00:45:18;;;;;;;6.93;5.35;;;;;;;11.79;93.04;97276.50;5051135;28;20138;-61
2023/05/05 00:47:48;;;;;;;8.98;5.68;;;;;;;11.83;92.94;97271.34;5042342;28;20045;-60
2023/05/05 00:50:24;;;;;;;7.32;5.30;;;;;;;11.81;92.68;97276.25;5047000;28;20048;-61
2023/05/05 00:53:09;;;;;;;7.82;5.00;;;;;;;11.78;93.10;97272.16;5043558;28;20094;-61
2023/05/05 00:55:36;;;;;;;7.55;5.50;;;;;;;11.81;92.47;97268.09;5041450;28;20040;-60
2023/05/05 00:58:05;;;;;;;10.90;5.38;;;;;;;11.79;92.62;97271.06;5041021;28;20037;-60
2023/05/05 01:00:32;;;;;;;6.85;5.13;;;;;;;11.75;92.67;97269.97;5052752;28;20040;-60
2023/05/05 01:02:58;;;;;;;6.45;4.70;;;;;;;11.69;92.93;97274.53;5047272;28;20569;-60
2023/05/05 01:05:37;;;;;;;6.63;4.95;;;;;;;11.75;92.60;97271.88;5047381;28;20479;-60
2023/05/05 01:08:06;;;;;;;7.45;5.20;;;;;;;11.78;92.28;97263.19;5043276;28;20518;-61
2023/05/05 01:10:57;;;;;;;10.98;5.97;;;;;;;11.76;92.27;97265.38;5054168;28;20040;-61
2023/05/05 01:13:41;;;;;;;8.95;5.88;;;;;;;11.68;93.11;97264.78;5036273;28;20450;-61
2023/05/05 01:16:17;;;;;;;8.68;5.53;;;;;;;11.60;93.92;97265.25;5052585;28;20045;-60
2023/05/05 01:19:01;;;;;;;8.27;5.57;;;;;;;11.58;93.94;97265.50;5046059;28;20037;-60
2023/05/05 01:21:35;;;;;;;9.23;6.20;;;;;;;11.50;94.55;97260.56;5042447;28;20041;-60
2023/05/05 01:24:10;;;;;;;9.13;6.15;;;;;;;11.39;95.62;97258.88;5043058;28;20037;-61
2023/05/05 01:27:08;;;;;;;8.95;5.78;;;;;;;11.27;96.40;97253.63;5051899;28;20125;-60
2023/05/05 01:29:59;;;;;;;7.97;5.68;;;;;;;11.30;95.87;97267.50;5047864;28;20055;-60
2023/05/05 01:32:28;;;;;;;8.43;5.93;;;;;;;11.22;96.51;97261.72;5035626;28;20071;-60
2023/05/05 01:35:00;;;;;;;8.27;6.00;;;;;;;11.19;96.78;97250.34;5037204;28;20214;-60
2023/05/05 01:37:52;;;;;;;7.90;5.57;;;;;;;11.24;96.55;97257.69;5041551;28;20427;-60
2023/05/05 01:40:24;;;;;;;7.57;5.57;;;;;;;11.37;95.67;97250.19;5018229;28;20049;-60
2023/05/05 01:42:53;;;;;;;;;;;;;;;11.39;95.74;97258.88;5051496;28;20044;-60
2023/05/05 01:45:23;;;;;;;7.15;5.70;;;;;;;11.42;95.33;97258.34;5043309;28;19946;-60
2023/05/05 01:47:52;;;;;;;9.50;5.75;;;;;;;11.44;95.09;97254.31;5047555;28;20106;-60
2023/05/05 01:50:20;;;;;;;9.38;5.88;;;;;;;11.39;95.79;97264.31;5051822;28;20568;-60
2023/05/05 01:52:47;;;;;;;9.48;6.28;;;;;;;11.29;96.34;97260.44;5046223;28;20439;-60
2023/05/05 01:55:17;;;;;;;8.43;5.63;;;;;;;11.34;96.15;97262.38;5052625;28;20041;-60
2023/05/05 01:57:46;;;;;;;9.38;5.82;;;;;;;11.31;96.52;97271.84;5057336;28;20090;-60
2023/05/05 02:00:14;;;;;;;8.23;5.78;;;;;;;11.22;97.49;97270.69;5047926;28;20618;-60
2023/05/05 02:02:43;;;;;;;9.43;5.35;;;;;;;11.13;98.24;97272.25;5046691;28;20079;-60
2023/05/05 02:05:12;;;;;;;11.98;5.57;;;;;;;11.02;99.19;97276.75;5046092;28;20041;-60
2023/05/05 02:07:38;;;;;;;8.20;6.15;;;;;;;11.04;99.23;97282.72;5042946;28;20041;-60
2023/05/05 02:10:06;;;;;;;9.02;6.47;;;;;;;11.08;99.02;97289.25;5050918;28;20068;-60
2023/05/05 02:12:35;;;;;;;8.38;5.50;;;;;;;11.12;98.78;97286.84;5049305;28;20041;-60
2023/05/05 02:15:04;;;;;;;7.70;5.50;;;;;;;11.11;98.95;97290.63;5048667;28;20041;-60
2023/05/05 02:17:31;;;;;;;8.65;5.72;;;;;;;11.11;99.11;97279.78;5052702;28;20066;-60
2023/05/05 02:20:00;;;;;;;9.85;6.03;;;;;;;11.10;99.00;97289.00;5047133;28;20040;-60
2023/05/05 02:22:27;;;;;;;7.25;5.55;;;;;;;11.07;99.30;97290.34;5041385;28;20501;-61
2023/05/05 02:24:54;;;;;;;8.73;5.28;;;;;;;11.02;99.57;97282.19;5059441;28;20126;-60
2023/05/05 02:27:22;;;;;;;7.72;5.70;;;;;;;11.16;98.55;97287.97;5048719;28;20423;-60
2023/05/05 02:29:57;;;;;;;7.07;5.47;;;;;;;11.34;97.30;97291.34;5055889;28;20047;-60
2023/05/05 02:32:32;;;;;;;10.00;5.53;;;;;;;11.55;95.48;97290.47;5057496;28;20072;-60
2023/05/05 02:35:14;;;;;;;8.00;4.90;;;;;;;11.78;93.99;97287.59;5043512;28;20044;-60
2023/05/05 02:37:47;;;;;;;7.35;5.18;;;;;;;11.88;93.40;97292.28;5041605;28;20091;-61
2023/05/05 02:40:21;;;;;;;10.57;5.15;;;;;;;11.92;93.07;97290.69;5044886;28;20068;-60
2023/05/05 02:42:50;;;;;;;7.93;5.25;;;;;;;12.04;92.55;97298.59;5048656;28;20079;-61
2023/05/05 02:45:20;;;;;;;6.85;4.65;;;;;;;12.09;92.21;97293.25;5043681;28;20064;-60
2023/05/05 02:47:48;;;;;;;6.40;4.82;;;;;;;12.06;92.61;97299.19;5046650;28;20071;-61
2023/05/05 02:50:15;;;;;;;8.82;5.25;;;;;;;12.02;93.29;97298.06;5044271;28;20137;-61
2023/05/05 02:52:50;;;;;;;9.55;5.50;;;;;;;12.00;94.11;97300.19;5046007;28;20048;-61
2023/05/05 02:55:19;;;;;;;7.25;5.28;;;;;;;12.03;93.90;97296.97;5044742;28;20124;-60
2023/05/05 02:57:51;;;;;;;9.38;5.13;;;;;;;12.00;94.59;97300.19;5037277;28;20045;-61
2023/05/05 03:00:22;;;;;;;6.95;5.35;;;;;;;12.04;94.97;97304.03;5052211;28;20041;-61
2023/05/05 03:03:15;;;;;;;7.40;5.10;;;;;;;12.10;94.84;97306.53;5047030;28;20056;-61
2023/05/05 03:06:06;;;;;;;7.93;4.45;;;;;;;12.19;94.77;97315.00;5044108;28;20041;-61
2023/05/05 03:08:43;;;;;;;5.78;4.53;;;;;;;12.36;94.09;97298.50;5050144;28;20041;-60
2023/05/05 03:11:30;;;;;;;9.18;4.32;;;;;;;12.53;93.41;97300.19;5051636;28;20041;-61
2023/05/05 03:14:19;;;;;;;9.32;4.68;;;;;;;12.64;92.84;97298.34;5043082;28;20048;-60
2023/05/05 03:16:48;;;;;;;6.28;4.18;;;;;;;12.79;92.23;97297.56;5044580;28;20037;-60
2023/05/05 03:19:18;;;;;;;16.27;5.10;;;;;;;12.83;92.36;97297.84;5042548;28;20041;-60
2023/05/05 03:21:47;;;;;;;6.50;4.20;;;;;;;12.88;92.18;97297.84;5048061;28;20068;-60
2023/05/05 03:24:15;;;;;;;7.03;4.78;;;;;;;12.92;92.18;97300.84;5048774;28;20044;-60
2023/05/05 03:26:48;;;;;;;8.48;4.05;;;;;;;13.03;91.78;97301.69;5049026;28;20732;-60
2023/05/05 03:29:18;;;;;;;6.55;4.40;;;;;;;13.00;92.06;97298.44;5049225;28;20276;-61
2023/05/05 03:31:45;;;;;;;7.15;4.05;;;;;;;13.00;92.25;97301.16;5046344;28;20040;-61
2023/05/05 03:34:12;;;;;;;6.22;4.20;;;;;;;13.02;92.20;97298.16;5044733;28;20045;-60
2023/05/05 03:36:44;;;;;;;6.93;4.18;;;;;;;12.97;93.03;97303.59;5041463;28;20037;-61
2023/05/05 03:39:13;;;;;;;7.07;4.18;;;;;;;12.92;93.46;97304.38;5046103;28;20037;-59
2023/05/05 03:41:40;;;;;;;6.65;4.38;;;;;;;12.90;94.03;97300.31;5048366;28;20384;-60
2023/05/05 03:44:08;;;;;;;5.68;3.88;;;;;;;12.87;94.44;97305.19;5058364;28;20041;-61
2023/05/05 03:46:35;;;;;;;6.70;4.13;;;;;;;12.86;94.87;97300.84;5050604;28;20049;-60
2023/05/05 03:49:04;;;;;;;7.03;4.28;;;;;;;12.86;95.63;97305.44;5045722;28;20700;-60
2023/05/05 03:51:31;;;;;;;9.48;4.20;;;;;;;12.85;95.77;97299.22;5046462;28;20049;-60
2023/05/05 03:53:58;;;;;;;6.75;4.68;;;;;;;12.96;95.44;97305.47;5047316;28;20499;-60
2023/05/05 03:56:25;;;;;;;7.82;3.85;;;;;;;13.06;94.96;97295.72;5044162;28;20884;-60
2023/05/05 03:58:52;;;;;;;10.07;3.90;;;;;;;13.01;95.38;97304.66;5051881;28;20337;-61
2023/05/05 04:01:18;;;;;;;6.55;4.15;;;;;;;13.06;95.49;97299.25;5056881;28;20075;-60
2023/05/05 04:03:45;;;;;;;8.10;4.78;;;;;;;13.09;95.25;97304.13;5046323;28;20045;-60
2023/05/05 04:06:12;;;;;;;5.15;3.65;;;;;;;13.13;95.31;97305.22;5042337;28;20072;-60
2023/05/05 04:08:38;;;;;;;7.70;4.53;;;;;;;13.13;95.73;97296.25;5041596;28;20820;-61
2023/05/05 04:11:04;;;;;;;6.43;3.88;;;;;;;13.13;95.86;97301.69;5046017;28;20078;-60
2023/05/05 04:13:32;;;;;;;5.40;3.70;;;;;;;13.13;96.06;97293.53;5043059;28;20254;-61
2023/05/05 04:16:00;;;;;;;6.57;4.03;;;;;;;13.20;95.83;97294.06;5044841;28;20040;-61
2023/05/05 04:18:27;;;;;;;6.10;4.18;;;;;;;13.25;95.32;97304.97;5037193;28;20149;-61
2023/05/05 04:20:54;;;;;;;7.28;3.88;;;;;;;13.27;95.83;97302.78;5039776;28;20110;-61
2023/05/05 04:23:21;;;;;;;8.95;3.97;;;;;;;13.27;95.80;97302.00;5052168;28;20049;-61
2023/05/05 04:25:48;;;;;;;7.22;3.72;;;;;;;13.27;95.31;97302.00;5049763;28;20057;-61
2023/05/05 04:28:15;;;;;;;5.88;3.97;;;;;;;13.33;95.29;97311.78;5039816;28;20052;-61
2023/05/05 04:30:41;;;;;;;7.88;3.72;;;;;;;13.34;95.78;97316.13;5046124;28;20041;-61
2023/05/05 04:33:08;;;;;;;6.15;3.60;;;;;;;13.36;95.40;97316.69;5040579;28;20045;-61
2023/05/05 04:35:34;;;;;;;5.07;3.63;;;;;;;13.39;95.23;97324.28;5050795;28;20052;-61
2023/05/05 04:38:01;;;;;;;6.80;4.10;;;;;;;13.43;95.14;97326.44;5047391;28;20079;-61
2023/05/05 04:40:27;;;;;;;6.63;3.70;;;;;;;13.49;94.29;97320.78;5040498;28;20617;-61
2023/05/05 04:42:55;;;;;;;5.97;3.85;;;;;;;13.59;93.88;97324.56;5046758;28;20045;-61
2023/05/05 04:45:22;;;;;;;5.15;3.58;;;;;;;13.62;94.03;97324.84;5046596;28;20494;-61
2023/05/05 04:47:49;;;;;;;6.07;3.45;;;;;;;13.65;92.99;97328.94;5044039;28;20041;-61
2023/05/05 04:50:15;;;;;;;5.68;3.50;;;;;;;13.70;92.74;97337.09;5047134;28;20068;-61
2023/05/05 04:52:42;;;;;;;7.75;3.45;;;;;;;13.68;92.86;97338.44;5042607;28;20090;-61
2023/05/05 04:55:09;;;;;;;7.07;3.10;;;;;;;13.77;92.57;97334.09;5042479;28;20458;-63
2023/05/05 04:57:36;;;;;;;10.40;3.97;;;;;;;13.82;92.88;97334.06;5035168;28;20072;-61
2023/05/05 05:00:04;;;;;;;5.68;3.47;;;;;;;13.79;93.12;97338.16;5039491;28;20431;-61
2023/05/05 05:02:31;;;;;;;6.20;3.55;;;;;;;13.76;93.18;97336.00;5039830;28;20048;-60
2023/05/05 05:04:57;;;;;;;6.47;3.90;;;;;;;13.71;93.61;97335.19;5041674;28;20049;-61
2023/05/05 05:07:24;;;;;;;8.50;3.72;;;;;;;13.82;93.18;97334.06;5051228;28;20658;-61
2023/05/05 05:09:51;;;;;;;5.47;3.65;;;;;;;13.88;93.62;97332.16;5054487;28;20047;-61
2023/05/05 05:12:18;;;;;;;5.13;3.58;;;;;;;14.00;93.21;97334.59;5038772;28;20045;-60
2023/05/05 05:14:44;;;;;;;5.85;3.78;;;;;;;14.13;93.28;97335.94;5044108;28;20051;-61
2023/05/05 05:17:11;;;;;;;5.97;4.13;;;;;;;14.31;92.59;97345.41;5044882;28;20040;-61
2023/05/05 05:19:38;;;;;;;5.70;3.45;;;;;;;14.55;92.68;97333.88;5050151;28;20045;-61
2023/05/05 05:22:04;;;;;;;10.52;3.80;;;;;;;14.88;91.20;97333.47;5050844;28;20049;-61
2023/05/05 05:24:35;;;;;;;6.68;2.85;;;;;;;15.26;88.84;97336.53;5045030;28;20477;-61
2023/05/05 05:27:02;;;;;;;4.75;2.92;;;;;;;15.54;86.65;97339.59;5052879;28;20143;-61
2023/05/05 05:29:28;;;;;;;6.85;2.78;;;;;;;15.68;85.92;97345.22;5039944;28;20523;-61
2023/05/05 05:31:58;;;;;;;4.68;2.58;;;;;;;15.79;85.99;97345.94;5045434;28;20036;-62
2023/05/05 05:34:24;;;;;;;10.10;3.45;;;;;;;15.92;85.06;97354.56;5049901;28;20685;-61
2023/05/05 05:36:51;;;;;;;3.85;2.10;;;;;;;16.01;85.40;97349.31;5043298;28;20036;-61
2023/05/05 05:39:18;;;;;;;3.88;2.05;;;;;;;16.12;83.70;97350.84;5043370;28;20041;-61
2023/05/05 05:41:44;;;;;;;5.65;2.10;;;;;;;16.21;83.51;97351.00;5046257;28;20039;-61
2023/05/05 05:44:11;;;;;;;5.05;2.47;;;;;;;16.19;84.10;97359.53;5045230;28;20041;-61
2023/05/05 05:46:38;;;;;;;4.70;2.10;;;;;;;16.17;84.32;97363.63;5047167;28;20044;-61
2023/05/05 05:49:04;;;;;;;5.88;2.70;;;;;;;16.22;85.06;97363.59;5045712;28;20471;-61
2023/05/05 05:51:31;;;;;;;4.97;2.45;;;;;;;16.21;84.06;97365.50;5043240;28;20479;-61
2023/05/05 05:53:57;;;;;;;7.50;2.55;;;;;;;16.22;84.21;97361.66;5050293;28;20743;-61
2023/05/05 05:56:24;;;;;;;9.27;1.88;;;;;;;16.38;82.57;97358.78;5047371;28;20080;-61
2023/05/05 05:58:51;;;;;;;6.75;2.58;;;;;;;16.41;83.00;97352.72;5038578;28;20037;-61
2023/05/05 06:01:18;;;;;;;10.27;2.50;;;;;;;16.56;82.05;97362.66;5049672;28;20056;-61
2023/05/05 06:03:45;;;;;;;2.45;1.60;;;;;;;16.67;81.41;97368.81;5040388;28;20052;-61
2023/05/05 06:06:12;;;;;;;3.80;1.90;;;;;;;16.75;79.30;97359.97;5044093;28;20040;-61
2023/05/05 06:08:39;;;;;;;5.32;1.95;;;;;;;16.86;80.70;97370.78;5039115;28;20061;-61
2023/05/05 06:11:05;;;;;;;6.68;2.50;;;;;;;17.00;78.31;97365.41;5041016;28;20114;-61
2023/05/05 06:13:33;;;;;;;7.90;2.17;;;;;;;17.17;78.90;97364.91;5038554;28;20053;-61
2023/05/05 06:15:59;;;;;;;2.35;1.40;;;;;;;17.08;77.58;97367.50;5037020;28;20045;-61
2023/05/05 06:18:26;;;;;;;2.38;1.38;;;;;;;17.14;78.07;97362.78;5040378;28;20045;-61
2023/05/05 06:20:53;;;;;;;4.10;1.33;;;;;;;17.06;78.21;97372.44;5044991;28;20041;-61
2023/05/05 06:23:23;;;;;;;4.20;1.65;;;;;;;17.14;77.93;97376.47;5045966;28;20122;-61
2023/05/05 06:25:56;;;;;;;4.00;1.65;;;;;;;17.26;77.75;97373.28;5041580;28;20048;-61
2023/05/05 06:28:22;;;;;;;3.60;1.67;;;;;;;17.22;79.82;97372.25;5043392;28;20045;-61
2023/05/05 06:30:48;;;;;;;2.97;1.42;;;;;;;17.12;78.42;97373.19;5051517;28;20488;-61
2023/05/05 06:33:15;;;;;;;4.00;1.60;;;;;;;17.13;77.54;97381.09;5052145;28;20053;-61
2023/05/05 06:35:41;;;;;;;4.03;1.70;;;;;;;17.02;79.29;97382.31;5042635;28;20136;-61
2023/05/05 06:38:08;;;;;;;3.65;1.90;;;;;;;16.97;81.72;97377.75;5052315;28;20665;-61
2023/05/05 06:40:35;;;;;;;8.18;1.77;;;;;;;16.98;78.94;97373.91;5048655;28;20032;-61
2023/05/05 06:43:01;;;;;;;8.52;1.50;;;;;;;17.03;78.18;97371.09;5057183;28;20113;-62
2023/05/05 06:45:33;;;;;;;4.38;1.73;;;;;;;17.03;78.63;97371.09;5047792;28;20066;-61
2023/05/05 06:48:00;;;;;;;4.30;1.55;;;;;;;17.11;78.23;97375.13;5048556;28;20037;-61
2023/05/05 06:50:27;;;;;;;3.40;1.27;;;;;;;17.10;78.32;97378.16;5053284;28;20032;-61
2023/05/05 06:52:53;;;;;;;5.43;1.50;;;;;;;17.11;78.45;97383.34;5040319;28;20124;-61
2023/05/05 06:55:20;;;;;;;4.13;1.50;;;;;;;17.09;77.45;97385.53;5043050;28;20617;-61
2023/05/05 06:57:47;;;;;;;4.20;1.25;;;;;;;17.17;76.33;97381.31;5043795;28;20058;-63
2023/05/05 07:00:15;;;;;;;8.38;1.85;;;;;;;17.03;77.61;97379.28;5043338;28;20041;-62
2023/05/05 07:02:42;;;;;;;3.83;1.15;;;;;;;17.09;77.33;97382.81;5055348;28;20089;-60
2023/05/05 07:05:09;;;;;;;3.53;1.17;;;;;;;17.13;75.79;97383.84;5044590;28;20511;-60
2023/05/05 07:07:36;;;;;;;2.72;1.40;;;;;;;17.21;76.32;97387.03;5043912;28;20040;-60
2023/05/05 07:10:02;;;;;;;2.53;1.27;;;;;;;17.08;76.44;97389.41;5056268;28;20074;-60
2023/05/05 07:12:32;;;;;;;2.30;1.38;;;;;;;17.21;75.88;97392.50;5043661;28;20038;-60
2023/05/05 07:14:58;;;;;;;3.08;1.38;;;;;;;17.20;77.29;97393.59;5051864;28;20048;-60
2023/05/05 07:17:28;;;;;;;2.88;1.30;;;;;;;17.02;76.53;97399.56;5059750;28;20044;-60
2023/05/05 07:19:54;;;;;;;2.83;1.50;;;;;;;16.99;78.15;97393.88;5059323;28;20060;-60
2023/05/05 07:22:21;;;;;;;4.88;1.30;;;;;;;16.99;77.17;97393.88;5048231;28;20086;-59
2023/05/05 07:24:47;;;;;;;4.43;1.50;;;;;;;17.07;76.21;97393.25;5050657;28;20072;-60
2023/05/05 07:27:16;;;;;;;4.20;1.10;;;;;;;17.11;75.20;97397.03;5049552;28;20416;-60
2023/05/05 07:29:43;;;;;;;2.83;1.20;;;;;;;17.22;75.32;97399.59;5052967;28;20060;-61
2023/05/05 07:32:09;;;;;;;4.28;1.20;;;;;;;17.34;74.76;97404.63;5046040;28;20486;-60
2023/05/05 07:34:36;;;;;;;4.68;1.25;;;;;;;17.16;76.50;97405.16;5047677;28;20727;-60
2023/05/05 07:37:04;;;;;;;4.72;1.40;;;;;;;17.21;74.94;97404.25;5040703;28;20063;-60
2023/05/05 07:39:30;;;;;;;5.00;1.33;;;;;;;17.13;75.31;97405.72;5037567;28;20212;-60
2023/05/05 07:41:57;;;;;;;4.03;1.52;;;;;;;17.15;77.88;97400.75;5035614;28;20041;-60
2023/05/05 07:44:24;;;;;;;6.45;2.20;;;;;;;16.99;80.10;97400.13;5044389;28;21017;-60
2023/05/05 07:46:50;;;;;;;3.60;1.60;;;;;;;16.95;82.18;97404.56;5044278;28;21851;-60
2023/05/05 07:49:18;;;;;;;4.80;1.60;;;;;;;17.16;81.71;97407.88;5047588;28;20064;-60
2023/05/05 07:51:45;;;;;;;3.40;1.50;;;;;;;17.33;79.75;97412.03;5044338;28;20119;-60
2023/05/05 07:54:11;;;;;;;3.55;1.38;;;;;;;17.37;79.11;97409.50;5035640;28;20045;-60
2023/05/05 07:56:38;;;;;;;6.25;1.85;;;;;;;17.27;80.75;97408.56;5044966;28;20069;-60
2023/05/05 07:59:04;;;;;;;3.92;1.90;;;;;;;17.22;79.91;97411.38;5042994;28;20045;-60
2023/05/05 08:01:31;;;;;;;4.47;1.90;;;;;;;17.17;80.86;97414.16;5048820;28;20060;-60
2023/05/05 08:03:57;;;;;;;4.97;1.80;;;;;;;17.00;81.66;97407.22;5047185;28;20041;-60
2023/05/05 08:06:26;;;;;;;8.10;2.05;;;;;;;16.85;81.72;97410.97;5043339;28;20112;-60
2023/05/05 08:08:54;;;;;;;3.55;1.80;;;;;;;16.85;82.07;97413.69;5038567;28;20087;-60
2023/05/05 08:11:20;;;;;;;5.20;2.10;;;;;;;17.12;81.23;97414.22;5050710;28;20102;-60
2023/05/05 08:13:47;;;;;;;6.22;1.60;;;;;;;17.28;80.15;97412.91;5047235;28;20574;-60
2023/05/05 08:16:14;;;;;;;5.97;1.70;;;;;;;17.45;80.82;97410.75;5049059;28;20681;-60
2023/05/05 08:18:41;;;;;;;3.83;1.83;;;;;;;17.35;81.40;97406.25;5046689;28;20419;-60
2023/05/05 08:21:09;;;;;;;5.53;2.95;;;;;;;17.23;80.23;97406.69;5047085;28;20416;-60
2023/05/05 08:23:36;;;;;;;6.85;2.70;;;;;;;17.39;79.61;97405.38;5047292;28;20048;-60
2023/05/05 08:26:10;;;;;;;4.80;2.00;;;;;;;17.59;78.78;97408.94;5040074;28;20071;-60
2023/05/05 08:28:37;;;;;;;17.15;2.58;;;;;;;17.67;77.14;97411.00;5043907;28;20102;-60
2023/05/05 08:31:05;;;;;;;5.80;2.92;;;;;;;17.83;77.34;97415.41;5039164;28;20037;-60
2023/05/05 08:33:31;;;;;;;2.78;1.40;;;;;;;18.00;75.58;97423.06;5042510;28;20041;-60
2023/05/05 08:35:58;;;;;;;3.05;1.77;;;;;;;17.69;74.86;97407.94;5042418;28;20073;-60
2023/05/05 08:38:24;;;;;;;5.05;2.00;;;;;;;17.63;75.28;97415.44;5051254;28;20733;-60
2023/05/05 08:40:51;;;;;;;3.85;1.48;;;;;;;17.88;73.61;97412.59;5044152;28;20107;-61
2023/05/05 08:43:21;;;;;;;4.65;1.85;;;;;;;17.75;76.55;97416.88;5046318;28;20170;-60
2023/05/05 08:45:48;;;;;;;4.43;1.85;;;;;;;17.86;75.66;97412.88;5043930;28;20044;-60
2023/05/05 08:48:18;;;;;;;3.63;1.38;;;;;;;17.80;76.34;97420.34;5045383;28;20120;-60
2023/05/05 08:50:50;;;;;;;3.80;1.70;;;;;;;17.83;75.75;97421.69;5041671;28;20520;-61
2023/05/05 08:53:43;;;;;;;5.57;1.85;;;;;;;17.89;75.92;97415.03;5049260;28;20045;-60
2023/05/05 08:56:13;;;;;;;5.00;1.58;;;;;;;17.96;76.10;97422.03;5044559;28;20049;-60
2023/05/05 08:58:41;;;;;;;4.35;2.03;;;;;;;18.09;75.32;97424.03;5042698;28;20041;-60
2023/05/05 09:01:09;;;;;;;6.18;1.67;;;;;;;17.95;76.06;97413.03;5044653;28;20124;-60
2023/05/05 09:03:37;;;;;;;3.95;1.73;;;;;;;18.13;75.09;97413.31;5049751;28;20052;-60
2023/05/05 09:06:04;;;;;;;5.03;1.67;;;;;;;18.40;74.57;97417.19;5049211;28;20032;-60
2023/05/05 09:08:32;;;;;;;3.90;1.88;;;;;;;18.45;74.63;97408.88;5035699;28;20415;-60
2023/05/05 09:11:00;;;;;;;3.92;1.60;;;;;;;18.21;73.67;97412.59;5034125;28;20574;-60
2023/05/05 09:13:29;;;;;;;5.57;1.85;;;;;;;18.43;75.05;97416.59;5048182;28;20526;-60
2023/05/05 09:15:59;;;;;;;4.43;1.90;;;;;;;18.33;74.15;97412.13;5039911;28;20077;-60
2023/05/05 09:18:26;;;;;;;3.97;1.80;;;;;;;18.37;74.80;97413.13;5042371;28;20326;-61
2023/05/05 09:20:52;;;;;;;4.28;1.80;;;;;;;18.23;74.50;97412.28;5038787;28;20068;-60
2023/05/05 09:23:20;;;;;;;3.60;1.73;;;;;;;18.41;74.13;97405.94;5041715;28;20116;-60
2023/05/05 09:26:03;;;;;;;4.97;1.80;;;;;;;18.32;74.52;97405.81;5045276;28;20110;-60
2023/05/05 09:28:30;;;;;;;4.47;1.52;;;;;;;18.32;75.01;97411.28;5047910;28;20033;-61
2023/05/05 09:31:11;;;;;;;4.22;1.80;;;;;;;18.17;75.76;97406.91;5039261;28;20041;-60
2023/05/05 09:33:38;;;;;;;4.50;1.92;;;;;;;18.46;75.54;97410.50;5041186;28;20106;-60
2023/05/05 09:36:05;;;;;;;4.78;2.03;;;;;;;18.89;74.28;97409.41;5048495;28;20060;-61
2023/05/05 09:38:31;;;;;;;7.28;2.72;;;;;;;19.16;76.45;97404.22;5044015;28;20033;-60
2023/05/05 09:40:58;;;;;;;4.65;2.15;;;;;;;19.33;76.31;97414.53;5039760;28;20068;-60
2023/05/05 09:43:24;;;;;;;5.10;2.17;;;;;;;19.27;75.77;97410.31;5050109;28;20041;-60
2023/05/05 09:46:06;;;;;;;4.38;2.10;;;;;;;19.28;76.09;97420.97;5048433;28;21594;-61
2023/05/05 09:48:32;;;;;;;6.32;2.08;;;;;;;19.04;76.31;97413.75;5052387;28;20044;-61
2023/05/05 09:50:59;;;;;;;3.90;2.15;;;;;;;18.89;75.78;97417.63;5045736;28;20071;-60
2023/05/05 09:53:36;;;;;;;5.82;2.05;;;;;;;18.68;77.35;97407.06;5046026;28;20044;-61
2023/05/05 09:56:03;;;;;;;5.53;2.40;;;;;;;18.26;81.47;97407.03;5049796;28;20493;-60
2023/05/05 09:58:30;;;;;;;4.25;2.10;;;;;;;18.11;78.92;97407.28;5040094;28;20037;-61
2023/05/05 10:00:57;;;;;;;7.20;3.28;;;;;;;17.92;79.28;97405.41;5039993;28;20495;-60
2023/05/05 10:03:24;;;;;;;7.07;3.80;;;;;;;17.73;80.55;97403.47;5046165;28;20040;-60
2023/05/05 10:05:54;;;;;;;9.90;3.42;;;;;;;17.48;81.07;97402.78;5046848;28;20076;-60
2023/05/05 10:08:23;;;;;;;4.78;2.85;;;;;;;17.41;81.45;97405.06;5050653;28;20033;-61
2023/05/05 10:10:55;;;;;;;5.05;2.78;;;;;;;17.59;80.48;97406.19;5045558;28;20060;-60
2023/05/05 10:13:23;;;;;;;5.30;2.22;;;;;;;17.66;80.57;97400.34;5049328;28;20047;-60
2023/05/05 10:15:55;;;;;;;5.30;2.42;;;;;;;17.88;78.77;97399.69;5057756;28;20048;-60
2023/05/05 10:18:23;;;;;;;5.47;2.33;;;;;;;17.87;78.58;97397.28;5044556;28;20076;-60
2023/05/05 10:21:03;;;;;;;5.07;2.85;;;;;;;17.86;79.59;97398.34;5050859;28;20532;-60
2023/05/05 10:23:47;;;;;;;5.68;2.17;;;;;;;17.68;78.41;97395.34;5059237;28;20808;-60
2023/05/05 10:26:15;;;;;;;4.78;2.70;;;;;;;17.51;78.98;97395.91;5051823;28;20524;-60
2023/05/05 10:29:00;;;;;;;3.90;2.60;;;;;;;17.48;78.77;97386.38;5049523;28;20094;-60
2023/05/05 10:31:35;;;;;;;5.75;2.22;;;;;;;17.50;78.99;97391.53;5052492;28;20040;-61
2023/05/05 10:34:25;;;;;;;4.10;2.28;;;;;;;17.33;80.14;97389.31;5049618;28;20041;-61
2023/05/05 10:36:53;;;;;;;7.18;2.22;;;;;;;17.32;79.68;97391.22;5052670;28;20647;-60
2023/05/05 10:39:22;;;;;;;4.18;2.40;;;;;;;17.40;80.20;97393.31;5051999;28;20041;-60
2023/05/05 10:41:50;;;;;;;5.60;2.40;;;;;;;17.55;79.02;97383.25;5046515;28;20049;-61
2023/05/05 10:44:17;;;;;;;3.55;2.13;;;;;;;17.83;78.21;97388.81;5045347;28;20051;-60
2023/05/05 10:46:43;;;;;;;5.63;2.58;;;;;;;17.75;79.92;97382.09;5051773;28;20060;-61
2023/05/05 10:49:23;;;;;;;4.75;2.38;;;;;;;17.74;79.08;97380.50;5048204;28;20041;-60
2023/05/05 10:51:59;;;;;;;4.78;2.35;;;;;;;17.92;77.77;97378.78;5044038;28;20523;-60
2023/05/05 10:54:35;;;;;;;4.72;2.42;;;;;;;18.06;79.22;97375.31;5050885;28;20657;-61
2023/05/05 10:57:05;;;;;;;7.35;3.45;;;;;;;18.15;78.60;97380.91;5046904;28;20043;-60
2023/05/05 10:59:35;;;;;;;5.93;2.20;;;;;;;18.13;77.86;97363.97;5043108;28;20036;-61
2023/05/05 11:02:20;;;;;;;4.05;2.13;;;;;;;18.31;76.45;97362.25;5045612;28;20036;-61
2023/05/05 11:05:05;;;;;;;12.20;2.92;;;;;;;18.72;74.40;97353.22;5043887;28;20531;-61
2023/05/05 11:07:33;;;;;;;4.15;2.58;;;;;;;19.30;71.36;97355.59;5049519;28;20037;-60
2023/05/05 11:10:02;;;;;;;4.60;1.90;;;;;;;19.43;70.88;97353.94;5053463;28;20114;-60
2023/05/05 11:12:31;;;;;;;5.63;2.10;;;;;;;19.62;68.25;97348.25;5044718;28;20041;-60
2023/05/05 11:15:32;;;;;;;4.85;1.75;;;;;;;19.48;67.40;97347.50;5042215;28;20095;-60
2023/05/05 11:18:03;;;;;;;2.60;1.55;;;;;;;19.85;68.22;97352.91;5044314;28;20055;-61
2023/05/05 11:20:36;;;;;;;3.58;1.63;;;;;;;19.93;65.30;97343.13;5041863;28;20229;-60
2023/05/05 11:23:02;;;;;;;2.78;1.55;;;;;;;20.39;64.50;97343.84;5050776;28;20127;-61
2023/05/05 11:25:36;;;;;;;4.40;2.00;;;;;;;20.58;61.72;97346.34;5047173;28;20451;-60
2023/05/05 11:28:09;;;;;;;6.07;1.67;;;;;;;20.83;62.32;97340.41;5052298;28;20038;-61
2023/05/05 11:30:54;;;;;;;3.95;1.70;;;;;;;21.20;61.88;97337.41;5045766;28;20039;-61
2023/05/05 11:33:27;;;;;;;5.40;1.88;;;;;;;20.90;62.36;97333.31;5052681;28;20048;-61
2023/05/05 11:36:08;;;;;;;4.70;1.58;;;;;;;21.39;60.06;97329.66;5049972;28;20075;-62
2023/05/05 11:38:35;;;;;;;2.90;1.73;;;;;;;21.50;57.84;97330.13;5040080;28;20491;-61
2023/05/05 11:41:11;;;;;;;3.53;1.55;;;;;;;21.61;57.23;97330.59;5044884;28;20038;-61
2023/05/05 11:43:38;;;;;;;11.65;1.75;;;;;;;21.82;58.08;97325.22;5038041;28;20037;-61
2023/05/05 11:46:15;;;;;;;3.88;1.33;;;;;;;21.36;57.69;97316.50;5048150;28;20487;-62